Página principal
METAR-TAF:

METAR-TAF

Aeroportos :

Varsóvia, Polónia

Aeroporto Frédéric Chopin de Varsóvia

latitude: 52-10N, longitude: 020-58E, altura: 106 m

Observação actual do tempo

O boletim foi feito há 30 minutos, às 23:00 UTC
Vento 2 kt de es-nordeste
Temperatura 9°C
Humidade 100%
Pressão 1018 hPa
Visibilidade 10 km ou mais
Névoa pouco espesso

METAR: EPWA 192300Z 06002KT 9999 MIFG NSC 09/09 Q1018 NOSIG

Hora: 01:30 (23:30 UTC)

Previsão

O boletim foi feito há 6 horas e 0 minutos, às 17:30 UTC
Previsão válida de 19 às 18 UTC a 20 às 18 UTC
Vento 5 kt de este
Visibilidade 10 km ou mais
Nuvens fragmentadasa uma altura de 2000 ft
Temporariamente
de 19 às 18 UTC a 20 às 08 UTC
Visibilidade: 3000 m
neblina
Probabilidade 30%
de 19 às 22 UTC a 20 às 07 UTC
Visibilidade: 0600 m
Nuvens fragmentadasa uma altura de 200 ft
nevoeiro

TAF: EPWA 191730Z 1918/2018 09005KT 9999 BKN020 TEMPO 1918/2008 3000 BR PROB30 1922/2007 0600 FG BKN002

Observações e previsões do tempo de mais de 4000 aeroportos (mensagens METAR e TAF).

As estações disponíveis são os pontos amarelos e vermelhos sobre o mapa.

Mova o rato sobre o mapa para ver o nome da estação.

Depois clique no ponto para visualizar as observações e previsões meteorológicas.

Para alterar o mapa : clique nos botões verdes com uma cruz preta para aumentar o zoom; no botão verde com uma pitada de zoom; ou nas setas verdes para mapas adjacentes.


METAR-TAF: